Time;durP1;ratioP1;P1;durP2;ratioP2;P2;SDS_P1;SDS_P2;PMS_P1;PMS_P2;Temp;Humidity;BMP_temperature;BMP_pressure;BME280_temperature;BME280_humidity;BME280_pressure;Samples;Min_cycle;Max_cycle;Signal;HPM_P1;HPM_P2
2022/04/11 00:03:53;;;;;;;7.33;2.92;;;;;;;3.43;85.22;100540.12;2864928;81;21487;-81
2022/04/11 00:07:55;;;;;;;3.60;2.47;;;;;;;3.37;85.75;100542.23;2855105;81;21043;-80
2022/04/11 00:12:00;;;;;;;3.52;2.20;;;;;;;3.32;86.27;100545.52;2851604;81;21611;-82
2022/04/11 00:15:59;;;;;;;3.92;2.58;;;;;;;3.29;86.35;100546.53;2836424;82;21102;-81
2022/04/11 00:20:01;;;;;;;4.47;3.17;;;;;;;3.28;86.39;100556.19;2872188;81;21000;-81
2022/04/11 00:24:02;;;;;;;2.67;2.33;;;;;;;3.27;86.43;100559.73;2841829;82;21043;-81
2022/04/11 00:28:03;;;;;;;3.15;2.05;;;;;;;3.30;86.38;100556.13;2861860;82;21023;-81
2022/04/11 00:32:06;;;;;;;4.85;3.62;;;;;;;3.29;86.53;100548.69;2871960;82;21045;-81
2022/04/11 00:36:07;;;;;;;5.22;3.50;;;;;;;3.22;87.34;100552.98;2870428;82;21035;-81
2022/04/11 00:40:10;;;;;;;4.58;3.52;;;;;;;3.21;87.61;100549.97;2848273;82;21359;-81
2022/04/11 00:44:11;;;;;;;5.67;4.60;;;;;;;3.22;87.20;100551.67;2849121;83;21067;-81
2022/04/11 00:48:12;;;;;;;5.85;4.67;;;;;;;3.24;86.90;100553.31;2852864;82;21020;-81
2022/04/11 00:52:15;;;;;;;4.90;4.22;;;;;;;3.28;86.38;100556.66;2851110;81;21786;-81
2022/04/11 00:56:19;;;;;;;4.75;3.65;;;;;;;3.27;86.04;100560.22;2828244;82;21047;-81
2022/04/11 01:00:20;;;;;;;8.73;5.35;;;;;;;3.27;85.96;100558.91;2847436;81;21092;-80
2022/04/11 01:04:24;;;;;;;4.75;3.60;;;;;;;3.26;86.11;100558.04;2853791;83;21017;-81
2022/04/11 01:08:25;;;;;;;5.85;4.65;;;;;;;3.26;86.42;100563.30;2847867;82;21012;-80
2022/04/11 01:12:26;;;;;;;6.70;4.08;;;;;;;3.27;86.99;100557.59;2852009;82;21012;-81
2022/04/11 01:16:28;;;;;;;6.75;4.62;;;;;;;3.24;87.73;100561.20;2852734;82;21078;-81
2022/04/11 01:20:29;;;;;;;8.75;4.25;;;;;;;3.22;88.63;100563.05;2849036;83;22175;-81
2022/04/11 01:24:32;;;;;;;5.80;4.22;;;;;;;3.29;89.01;100563.14;2851351;82;21040;-80
2022/04/11 01:28:38;;;;;;;6.08;4.28;;;;;;;3.38;89.06;100563.66;2854663;82;21618;-81
2022/04/11 01:32:40;;;;;;;4.23;3.83;;;;;;;3.46;89.33;100564.12;2856123;83;21614;-80
2022/04/11 01:36:41;;;;;;;7.62;5.67;;;;;;;3.55;89.69;100565.02;2832031;81;22162;-81
2022/04/11 01:40:55;;;;;;;4.92;4.05;;;;;;;3.63;89.12;100575.15;2832973;82;21044;-80
2022/04/11 01:44:56;;;;;;;6.75;5.30;;;;;;;3.71;88.84;100573.02;2848304;82;21075;-80
2022/04/11 01:48:57;;;;;;;7.97;5.37;;;;;;;3.76;88.93;100575.87;2863026;81;21047;-80
2022/04/11 01:53:07;;;;;;;4.75;4.08;;;;;;;3.84;89.18;100578.53;2843520;81;21380;-80
2022/04/11 01:57:09;;;;;;;5.87;5.00;;;;;;;3.94;89.05;100575.45;2867398;81;21504;-80
2022/04/11 02:01:14;;;;;;;6.00;4.58;;;;;;;4.00;89.18;100579.09;2861988;81;21075;-81
2022/04/11 02:05:16;;;;;;;6.97;5.35;;;;;;;4.05;89.34;100580.19;2870704;81;21007;-80
2022/04/11 02:09:17;;;;;;;4.97;4.05;;;;;;;4.07;89.58;100576.53;2862098;81;21031;-80
2022/04/11 02:13:18;;;;;;;5.65;3.95;;;;;;;4.14;89.42;100572.68;2866765;82;21028;-80
2022/04/11 02:17:19;;;;;;;5.47;4.33;;;;;;;4.19;89.26;100573.73;2801650;83;21080;-80
2022/04/11 02:21:20;;;;;;;10.10;3.98;;;;;;;4.23;89.41;100570.50;2800155;84;21102;-81
2022/04/11 02:25:24;;;;;;;12.73;3.72;;;;;;;4.25;89.58;100572.58;2872991;82;21103;-81
2022/04/11 02:29:25;;;;;;;3.95;3.55;;;;;;;4.29;89.45;100574.12;2870944;82;21036;-81
2022/04/11 02:33:26;;;;;;;6.35;4.67;;;;;;;4.33;89.43;100578.33;2857576;82;21071;-81
2022/04/11 02:37:27;;;;;;;4.72;3.52;;;;;;;4.37;89.45;100574.60;2871395;82;21003;-81
2022/04/11 02:41:28;;;;;;;7.22;3.08;;;;;;;4.41;89.23;100574.83;2852522;82;21063;-81
2022/04/11 02:45:29;;;;;;;5.12;3.17;;;;;;;4.41;89.11;100576.14;2834994;83;21012;-80
2022/04/11 02:49:30;;;;;;;4.10;3.45;;;;;;;4.43;88.90;100574.77;2836146;83;21579;-80
2022/04/11 02:53:31;;;;;;;7.67;4.72;;;;;;;4.43;88.46;100580.03;2832516;81;21626;-81
2022/04/11 02:57:33;;;;;;;6.30;4.17;;;;;;;4.42;88.24;100580.48;2829515;82;21051;-81
2022/04/11 03:01:34;;;;;;;5.60;4.22;;;;;;;4.45;88.11;100580.80;2853530;82;21000;-80
2022/04/11 03:05:35;;;;;;;7.15;4.17;;;;;;;4.42;87.95;100574.34;2833664;81;21083;-80
2022/04/11 03:09:36;;;;;;;5.28;3.70;;;;;;;4.36;87.80;100572.91;2830586;81;21051;-80
2022/04/11 03:13:37;;;;;;;8.48;5.12;;;;;;;4.37;88.04;100586.45;2855397;81;21083;-80
2022/04/11 03:17:38;;;;;;;4.47;3.83;;;;;;;4.34;88.11;100582.67;2849412;81;21314;-80
2022/04/11 03:21:40;;;;;;;10.75;4.67;;;;;;;4.31;88.17;100578.84;2848213;81;21008;-80
2022/04/11 03:25:41;;;;;;;5.85;4.42;;;;;;;4.28;88.23;100582.51;2858657;82;21480;-80
2022/04/11 03:29:42;;;;;;;4.78;3.20;;;;;;;4.28;88.13;100592.17;2850538;81;21074;-80
2022/04/11 03:33:44;;;;;;;7.25;4.05;;;;;;;4.23;88.00;100595.52;2795167;84;21619;-79
2022/04/11 03:37:45;;;;;;;9.63;3.83;;;;;;;4.19;87.88;100598.76;2834522;82;20965;-80
2022/04/11 03:41:46;;;;;;;9.43;5.37;;;;;;;4.13;87.64;100594.67;2874811;81;20980;-80
2022/04/11 03:45:47;;;;;;;3.75;2.62;;;;;;;4.04;87.72;100585.06;2852511;81;21002;-79
2022/04/11 03:49:48;;;;;;;5.40;3.67;;;;;;;3.98;87.75;100587.53;2869144;81;21031;-80
2022/04/11 03:53:49;;;;;;;11.25;4.97;;;;;;;3.90;88.05;100593.63;2863817;81;21523;-80
2022/04/11 03:57:51;;;;;;;5.37;3.42;;;;;;;3.86;88.30;100597.72;2870298;81;21071;-80
2022/04/11 04:01:53;;;;;;;8.30;3.17;;;;;;;3.84;88.53;100599.58;2852977;81;21337;-80
2022/04/11 04:05:54;;;;;;;5.83;3.95;;;;;;;3.84;88.49;100602.69;2846592;82;21063;-80
2022/04/11 04:09:55;;;;;;;5.90;4.08;;;;;;;3.85;88.43;100606.55;2848380;81;21046;-80
2022/04/11 04:13:56;;;;;;;6.72;4.55;;;;;;;3.87;88.29;100605.17;2834364;82;21083;-79
2022/04/11 04:17:57;;;;;;;12.03;4.75;;;;;;;3.89;88.21;100609.02;2866321;81;21016;-79
2022/04/11 04:21:58;;;;;;;5.53;4.70;;;;;;;3.88;88.21;100610.82;2850879;82;21601;-80
2022/04/11 04:25:59;;;;;;;6.50;4.10;;;;;;;3.88;88.26;100623.11;2844504;82;21043;-79
2022/04/11 04:30:00;;;;;;;5.05;3.80;;;;;;;3.86;88.31;100624.05;2860256;82;21011;-80
2022/04/11 04:34:02;;;;;;;6.25;3.62;;;;;;;3.90;88.30;100626.52;2873317;81;21034;-79
2022/04/11 04:38:03;;;;;;;6.60;3.83;;;;;;;3.99;88.43;100631.35;2857719;81;21037;-80
2022/04/11 04:42:06;;;;;;;8.80;4.28;;;;;;;4.00;88.31;100633.05;2836454;81;22334;-80
2022/04/11 04:46:07;;;;;;;16.25;4.05;;;;;;;4.04;88.37;100638.55;2834898;82;21095;-79
2022/04/11 04:50:09;;;;;;;10.98;4.65;;;;;;;4.08;88.19;100645.37;2818316;83;21051;-79
2022/04/11 04:54:11;;;;;;;12.45;4.47;;;;;;;4.13;88.17;100647.33;2842069;83;21163;-79
2022/04/11 04:58:12;;;;;;;6.72;4.72;;;;;;;4.20;87.97;100650.48;2831197;81;21054;-79
2022/04/11 05:02:13;;;;;;;5.65;4.08;;;;;;;4.24;87.82;100658.66;2817816;81;21481;-79
2022/04/11 05:06:14;;;;;;;5.97;3.30;;;;;;;4.32;87.61;100664.83;2850095;81;21575;-79
2022/04/11 05:10:15;;;;;;;11.18;5.30;;;;;;;4.36;87.37;100665.09;2840660;81;21015;-79
2022/04/11 05:14:16;;;;;;;8.80;4.25;;;;;;;4.43;87.21;100663.01;2854622;81;21047;-79
2022/04/11 05:18:18;;;;;;;6.37;3.85;;;;;;;4.50;87.12;100672.30;2858227;82;21008;-80
2022/04/11 05:22:19;;;;;;;6.83;4.22;;;;;;;4.59;87.06;100672.30;2848950;83;21476;-79
2022/04/11 05:26:20;;;;;;;8.68;4.50;;;;;;;4.74;86.70;100674.61;2838477;83;21046;-80
2022/04/11 05:30:21;;;;;;;21.60;4.87;;;;;;;4.89;86.55;100670.32;2837104;82;21032;-80
2022/04/11 05:34:22;;;;;;;8.90;4.37;;;;;;;5.03;85.88;100680.63;2818682;82;21005;-79
2022/04/11 05:38:24;;;;;;;6.95;4.10;;;;;;;5.15;85.39;100678.67;2835900;83;21056;-80
2022/04/11 05:42:25;;;;;;;9.40;3.37;;;;;;;5.33;85.02;100682.58;2836842;81;21030;-80
2022/04/11 05:46:26;;;;;;;8.03;4.67;;;;;;;5.46;83.91;100684.92;2858271;81;21045;-79
2022/04/11 05:50:27;;;;;;;10.18;5.20;;;;;;;5.47;83.50;100682.67;2860007;83;21579;-80
2022/04/11 05:54:28;;;;;;;4.72;3.83;;;;;;;5.55;83.08;100686.22;2860296;81;21050;-79
2022/04/11 05:58:29;;;;;;;11.97;3.58;;;;;;;6.07;83.15;100683.81;2860409;81;21009;-80
2022/04/11 06:02:30;;;;;;;8.60;3.95;;;;;;;6.89;82.20;100682.20;2859707;82;21334;-79
2022/04/11 06:06:32;;;;;;;11.78;5.53;;;;;;;7.78;79.18;100684.24;2855245;81;21059;-80
2022/04/11 06:10:33;;;;;;;5.65;3.70;;;;;;;8.44;74.85;100679.08;2833105;83;21018;-80
2022/04/11 06:14:34;;;;;;;5.40;3.85;;;;;;;8.86;72.66;100682.13;2852704;81;21011;-80
2022/04/11 06:18:35;;;;;;;10.72;4.65;;;;;;;9.05;70.68;100672.89;2837055;81;21569;-79
2022/04/11 06:22:40;;;;;;;9.30;3.72;;;;;;;9.34;69.36;100681.94;2844380;81;21020;-80
2022/04/11 06:26:41;;;;;;;5.22;4.33;;;;;;;9.48;69.45;100684.47;2824516;83;21088;-80
2022/04/11 06:30:42;;;;;;;5.37;3.42;;;;;;;9.66;68.99;100682.80;2837235;83;21590;-80
2022/04/11 06:34:43;;;;;;;6.03;3.67;;;;;;;9.88;67.69;100675.92;2840912;81;21238;-79
2022/04/11 06:38:44;;;;;;;6.97;3.25;;;;;;;10.13;67.49;100681.63;2849086;82;21042;-79
2022/04/11 06:42:45;;;;;;;6.62;3.70;;;;;;;9.93;65.97;100681.28;2836569;81;21035;-80
2022/04/11 06:46:47;;;;;;;8.38;4.53;;;;;;;9.99;66.85;100676.84;2852444;82;21535;-80
2022/04/11 06:50:50;;;;;;;5.80;4.80;;;;;;;9.96;66.90;100677.06;2874902;81;21028;-80
2022/04/11 06:54:51;;;;;;;9.95;5.45;;;;;;;10.02;66.54;100679.73;2870778;81;21007;-80
2022/04/11 06:58:52;;;;;;;7.90;3.85;;;;;;;9.99;65.80;100676.84;2852826;81;21000;-80
2022/04/11 07:02:54;;;;;;;13.80;5.12;;;;;;;10.14;66.76;100677.50;2848085;82;21113;-79
2022/04/11 07:06:55;;;;;;;7.58;4.55;;;;;;;10.20;66.20;100671.36;2854186;82;20969;-80
2022/04/11 07:11:00;;;;;;;9.93;4.72;;;;;;;10.18;65.69;100679.47;2861728;81;21056;-80
2022/04/11 07:15:02;;;;;;;5.00;3.50;;;;;;;10.21;65.04;100670.39;2837131;81;21682;-79
2022/04/11 07:19:04;;;;;;;4.70;2.65;;;;;;;9.97;64.20;100673.91;2847968;82;21028;-80
2022/04/11 07:23:05;;;;;;;7.87;3.65;;;;;;;9.75;65.04;100682.61;2841808;82;21039;-79
2022/04/11 07:27:06;;;;;;;5.80;3.67;;;;;;;9.66;64.46;100676.98;2845752;82;21012;-80
2022/04/11 07:31:08;;;;;;;9.33;3.47;;;;;;;9.80;65.92;100678.64;2849483;82;20999;-80
2022/04/11 07:35:09;;;;;;;4.10;3.08;;;;;;;9.86;65.24;100685.32;2851125;81;21036;-80
2022/04/11 07:39:10;;;;;;;5.42;2.95;;;;;;;9.89;66.69;100678.95;2845243;81;21090;-80
2022/04/11 07:43:11;;;;;;;4.70;3.12;;;;;;;9.78;64.72;100691.69;2845895;82;21128;-80
2022/04/11 07:47:12;;;;;;;4.75;3.02;;;;;;;9.56;63.28;100687.91;2854798;82;21582;-80
2022/04/11 07:51:13;;;;;;;7.75;3.83;;;;;;;9.64;67.89;100692.19;2865995;81;21016;-79
2022/04/11 07:55:18;;;;;;;12.95;3.20;;;;;;;9.59;64.75;100682.38;2860718;81;21043;-80
2022/04/11 07:59:19;;;;;;;4.83;2.90;;;;;;;9.75;65.60;100686.59;2852169;81;21059;-80
2022/04/11 08:03:21;;;;;;;4.12;2.75;;;;;;;9.90;66.59;100677.98;2866237;81;21567;-80
2022/04/11 08:07:22;;;;;;;5.22;3.17;;;;;;;9.84;64.09;100685.45;2845604;82;21058;-80
2022/04/11 08:11:25;;;;;;;8.48;4.15;;;;;;;9.79;64.30;100691.55;2848802;82;21028;-80
2022/04/11 08:15:29;;;;;;;8.60;4.47;;;;;;;10.05;64.36;100694.61;2865033;81;21020;-80
2022/04/11 08:19:31;;;;;;;4.05;2.77;;;;;;;9.65;63.36;100701.85;2831154;82;21031;-80
2022/04/11 08:23:32;;;;;;;6.45;3.42;;;;;;;9.77;64.67;100693.48;2841452;81;21075;-80
2022/04/11 08:27:33;;;;;;;3.83;2.62;;;;;;;10.03;62.65;100690.75;2870094;82;21024;-80
2022/04/11 08:31:34;;;;;;;4.40;3.02;;;;;;;10.25;64.09;100690.50;2843910;81;21054;-80
2022/04/11 08:35:35;;;;;;;3.90;1.95;;;;;;;10.42;62.31;100697.24;2842524;81;21055;-80
2022/04/11 08:39:37;;;;;;;13.75;3.33;;;;;;;10.15;58.00;100699.64;2833953;81;21103;-80
2022/04/11 08:43:39;;;;;;;5.85;2.37;;;;;;;10.12;60.93;100698.04;2866290;81;21052;-80
2022/04/11 08:47:41;;;;;;;7.70;2.08;;;;;;;10.33;60.52;100697.41;2876444;82;21574;-80
2022/04/11 08:51:42;;;;;;;6.60;2.55;;;;;;;10.25;57.97;100703.80;2860701;81;21526;-80
2022/04/11 08:55:43;;;;;;;4.95;2.55;;;;;;;10.37;59.08;100696.71;2847902;81;21606;-80
2022/04/11 08:59:44;;;;;;;3.62;2.05;;;;;;;10.52;58.60;100696.94;2838571;81;21071;-80
2022/04/11 09:03:45;;;;;;;4.17;2.30;;;;;;;10.53;58.46;100707.08;2851632;82;20988;-79
2022/04/11 09:07:59;;;;;;;2.87;1.85;;;;;;;10.43;56.89;100702.45;2852058;81;21038;-80
2022/04/11 09:12:02;;;;;;;4.22;2.08;;;;;;;10.32;59.58;100703.69;2844631;81;21095;-80
2022/04/11 09:16:03;;;;;;;7.92;2.33;;;;;;;10.59;58.72;100689.81;2867054;81;21051;-80
2022/04/11 09:20:10;;;;;;;2.67;1.82;;;;;;;10.79;58.62;100678.97;2832281;82;21039;-80
2022/04/11 09:24:19;;;;;;;6.17;2.33;;;;;;;10.11;60.34;100694.15;2845208;82;21594;-80
2022/04/11 09:28:20;;;;;;;2.02;1.72;;;;;;;9.67;64.55;100700.42;2853153;82;21505;-79
2022/04/11 09:32:22;;;;;;;7.08;3.37;;;;;;;9.33;63.37;100711.60;2870909;81;21094;-80
2022/04/11 09:36:24;;;;;;;4.33;3.05;;;;;;;9.36;63.75;100714.53;2875128;81;21055;-80
2022/04/11 09:40:25;;;;;;;4.53;2.67;;;;;;;9.52;64.33;100711.17;2826936;82;21075;-80
2022/04/11 09:44:30;;;;;;;5.85;3.33;;;;;;;10.00;63.18;100713.55;2828554;83;21028;-80
2022/04/11 09:48:35;;;;;;;4.83;2.30;;;;;;;10.49;62.60;100702.45;2836673;83;21569;-79
2022/04/11 09:52:36;;;;;;;6.85;3.85;;;;;;;10.76;57.12;100695.17;2859308;81;21461;-80
2022/04/11 09:56:38;;;;;;;13.40;3.72;;;;;;;10.91;60.11;100698.49;2836787;81;21040;-80
2022/04/11 10:00:42;;;;;;;3.67;2.70;;;;;;;10.95;58.81;100695.45;2838349;82;21323;-80
2022/04/11 10:04:49;;;;;;;5.53;3.20;;;;;;;10.51;61.10;100705.84;2830922;82;21047;-79
2022/04/11 10:08:48;;;;;;;4.60;2.25;;;;;;;9.95;64.15;100709.05;2827695;83;21332;-80
2022/04/11 10:12:53;;;;;;;3.67;2.65;;;;;;;9.79;64.62;100694.21;2840351;82;21044;-80
2022/04/11 10:16:58;;;;;;;5.80;2.70;;;;;;;9.77;65.39;100697.47;2828674;82;21083;-80
2022/04/11 10:21:05;;;;;;;3.02;2.47;;;;;;;9.77;67.06;100692.15;2852127;81;21016;-80
2022/04/11 10:25:07;;;;;;;4.45;2.85;;;;;;;10.03;64.86;100686.77;2854360;81;21055;-80
2022/04/11 10:29:36;;;;;;;3.15;2.30;;;;;;;10.35;65.54;100691.49;2841742;81;21325;-79
2022/04/11 10:33:50;;;;;;;5.55;3.20;;;;;;;10.50;63.84;100686.86;2846191;82;21579;-79
2022/04/11 10:37:59;;;;;;;8.80;3.40;;;;;;;10.51;63.56;100675.26;2844997;83;21032;-79
2022/04/11 10:42:09;;;;;;;7.15;2.85;;;;;;;10.72;61.11;100675.95;2855649;81;21063;-79
2022/04/11 10:46:10;;;;;;;4.78;3.67;;;;;;;10.80;58.16;100670.87;2871777;81;21050;-80
2022/04/11 10:50:21;;;;;;;4.28;2.00;;;;;;;10.40;59.74;100693.35;2863885;81;20987;-80
2022/04/11 10:54:22;;;;;;;2.87;1.82;;;;;;;10.31;59.42;100680.73;2828489;83;21047;-80
2022/04/11 10:58:47;;;;;;;5.87;3.50;;;;;;;10.36;59.01;100681.22;2795439;83;21091;-80
2022/04/11 11:02:59;;;;;;;3.40;2.62;;;;;;;10.66;59.43;100673.27;2820749;81;21008;-80
2022/04/11 11:07:26;;;;;;;2.67;2.47;;;;;;;11.10;57.55;100668.62;2852234;81;20996;-79
2022/04/11 11:11:28;;;;;;;2.90;2.65;;;;;;;11.34;55.05;100663.66;2834853;82;21071;-80
2022/04/11 11:15:30;;;;;;;3.42;2.30;;;;;;;11.51;57.85;100658.34;2839398;81;21036;-80
2022/04/11 11:19:31;;;;;;;5.12;2.90;;;;;;;11.73;58.97;100662.77;2845654;82;21032;-79
2022/04/11 11:23:34;;;;;;;2.70;2.17;;;;;;;11.57;56.33;100661.83;2825232;83;21016;-79
2022/04/11 11:27:35;;;;;;;9.10;3.87;;;;;;;11.37;55.44;100648.76;2833188;83;21040;-79
2022/04/11 11:31:36;;;;;;;3.70;2.52;;;;;;;11.38;57.17;100647.31;2825688;81;21019;-79
2022/04/11 11:35:50;;;;;;;5.92;2.47;;;;;;;11.38;54.35;100639.33;2843958;81;21025;-80
2022/04/11 11:39:52;;;;;;;6.08;2.40;;;;;;;11.50;57.04;100640.16;2848970;81;21024;-79
2022/04/11 11:43:55;;;;;;;3.87;2.55;;;;;;;11.64;55.39;100631.05;2813176;81;21004;-79
2022/04/11 11:47:57;;;;;;;3.20;1.95;;;;;;;11.98;52.07;100630.09;2821540;83;21083;-79
2022/04/11 11:51:58;;;;;;;9.73;2.58;;;;;;;12.10;54.48;100611.80;2825895;82;21006;-79
2022/04/11 11:55:59;;;;;;;2.40;1.60;;;;;;;12.09;54.08;100607.44;2858470;81;21070;-79
2022/04/11 12:00:09;;;;;;;1.80;1.37;;;;;;;12.28;53.64;100608.56;2837468;81;21020;-79
2022/04/11 12:04:21;;;;;;;4.67;2.10;;;;;;;12.27;51.55;100613.54;2856084;83;21028;-79
2022/04/11 12:08:19;;;;;;;4.62;1.05;;;;;;;12.23;51.80;100601.45;2825534;83;21076;-80
2022/04/11 12:12:21;;;;;;;1.98;1.40;;;;;;;12.17;51.23;100596.60;2853003;82;21031;-79
2022/04/11 12:16:22;;;;;;;11.45;1.80;;;;;;;12.25;50.74;100596.32;2856308;82;21523;-79
2022/04/11 12:20:23;;;;;;;1.72;1.07;;;;;;;12.18;50.86;100595.16;2830285;82;21040;-80
2022/04/11 12:24:31;;;;;;;2.45;1.47;;;;;;;12.35;52.15;100599.56;2829635;83;21001;-80
2022/04/11 12:28:34;;;;;;;1.80;1.35;;;;;;;12.37;48.56;100594.44;2829924;81;21031;-79
2022/04/11 12:32:39;;;;;;;5.58;1.67;;;;;;;12.37;50.17;100594.94;2860184;81;21036;-79
2022/04/11 12:36:58;;;;;;;3.77;1.90;;;;;;;12.26;49.55;100586.01;2837244;82;21063;-79
2022/04/11 12:40:59;;;;;;;2.65;1.85;;;;;;;11.97;51.41;100581.75;2818510;83;21068;-80
2022/04/11 12:45:07;;;;;;;1.35;1.22;;;;;;;11.93;50.37;100580.33;2789029;84;21052;-79
2022/04/11 12:49:11;;;;;;;2.22;1.52;;;;;;;12.10;48.73;100579.80;2787033;84;21004;-80
2022/04/11 12:53:12;;;;;;;3.42;1.37;;;;;;;11.98;49.40;100572.78;2720540;86;21039;-80
2022/04/11 12:57:27;;;;;;;2.52;1.52;;;;;;;11.89;49.57;100564.23;2723905;86;21035;-79
2022/04/11 13:01:51;;;;;;;2.20;1.82;;;;;;;12.11;50.64;100561.99;2741900;86;21072;-80
2022/04/11 13:05:52;;;;;;;3.87;2.27;;;;;;;12.58;52.33;100557.59;2732770;86;21063;-80
2022/04/11 13:09:54;;;;;;;2.45;2.17;;;;;;;13.09;49.33;100552.30;2821005;83;21039;-80
2022/04/11 13:13:55;;;;;;;2.55;1.47;;;;;;;13.23;50.21;100546.59;2799541;84;21035;-80
2022/04/11 13:22:17;;;;;;;1.50;1.40;;;;;;;13.08;45.79;100538.59;2781753;83;22229;-80
2022/04/11 13:26:18;;;;;;;1.32;1.00;;;;;;;12.93;44.82;100546.97;2787899;83;21016;-80
2022/04/11 13:30:19;;;;;;;2.33;1.40;;;;;;;12.72;47.29;100535.03;2790999;83;21048;-80
2022/04/11 13:34:21;;;;;;;1.95;1.25;;;;;;;12.60;46.70;100532.95;2772789;83;21001;-80
2022/04/11 13:38:22;;;;;;;8.18;2.67;;;;;;;12.51;47.77;100540.39;2789071;82;21013;-79
2022/04/11 13:42:23;;;;;;;1.95;1.30;;;;;;;12.76;48.12;100529.78;2827738;83;21052;-79
2022/04/11 13:46:24;;;;;;;3.10;1.52;;;;;;;12.94;48.69;100529.14;2862594;82;21524;-80
2022/04/11 13:50:25;;;;;;;3.45;2.12;;;;;;;12.76;44.83;100528.92;2861720;83;21028;-81
2022/04/11 13:54:26;;;;;;;3.02;1.35;;;;;;;12.40;46.66;100531.52;2861616;82;21005;-84
2022/04/11 13:58:28;;;;;;;6.37;3.52;;;;;;;12.12;46.14;100525.84;2861717;83;21079;-79
2022/04/11 14:02:29;;;;;;;9.30;3.65;;;;;;;11.92;47.13;100521.31;2861799;82;21016;-79
2022/04/11 14:06:30;;;;;;;2.60;1.85;;;;;;;12.03;48.88;100523.97;2862353;83;21515;-80
2022/04/11 14:10:31;;;;;;;3.33;1.40;;;;;;;12.12;46.21;100509.84;2862724;83;21013;-79
2022/04/11 14:14:33;;;;;;;3.05;1.62;;;;;;;12.31;47.15;100508.78;2862972;81;21008;-79
2022/04/11 14:18:34;;;;;;;3.65;1.00;;;;;;;12.74;48.95;100505.52;2858607;82;21028;-80
2022/04/11 14:22:35;;;;;;;3.47;1.60;;;;;;;12.46;46.25;100502.61;2837622;82;21630;-80
2022/04/11 14:26:36;;;;;;;1.75;1.15;;;;;;;12.42;47.75;100497.53;2849585;81;21516;-80
2022/04/11 14:30:40;;;;;;;1.42;1.05;;;;;;;12.65;47.60;100496.50;2853121;82;21044;-80
2022/04/11 14:34:41;;;;;;;7.03;1.92;;;;;;;12.97;49.30;100496.35;2849572;83;21585;-80
2022/04/11 14:38:43;;;;;;;3.58;1.92;;;;;;;13.07;45.42;100492.37;2838128;82;21473;-80
2022/04/11 14:42:44;;;;;;;2.58;1.40;;;;;;;13.21;45.53;100484.45;2836515;82;21063;-81
2022/04/11 14:46:45;;;;;;;11.95;4.95;;;;;;;13.19;46.23;100477.55;2856068;81;21024;-81
2022/04/11 14:50:47;;;;;;;2.47;1.32;;;;;;;12.87;44.85;100484.78;2852112;81;21040;-80
2022/04/11 14:54:48;;;;;;;2.83;1.77;;;;;;;12.56;46.79;100479.46;2848773;82;21047;-81
2022/04/11 14:58:50;;;;;;;4.15;1.80;;;;;;;12.37;47.68;100481.06;2855970;82;21051;-81
2022/04/11 15:02:51;;;;;;;5.75;1.62;;;;;;;12.30;47.16;100471.91;2817170;82;21180;-81
2022/04/11 15:06:52;;;;;;;20.95;13.88;;;;;;;12.24;48.20;100461.78;2844516;81;21047;-81
2022/04/11 15:10:55;;;;;;;20.08;5.97;;;;;;;12.40;47.15;100457.29;2780132;82;21076;-80
2022/04/11 15:14:56;;;;;;;2.35;1.52;;;;;;;12.68;45.14;100458.38;2764665;84;21114;-81
2022/04/11 15:18:57;;;;;;;2.80;2.25;;;;;;;13.04;46.48;100462.41;2838100;81;21048;-81
2022/04/11 15:22:59;;;;;;;5.95;2.90;;;;;;;13.10;43.88;100454.70;2831606;82;21543;-81
2022/04/11 15:27:02;;;;;;;5.05;3.52;;;;;;;13.26;45.21;100466.64;2845486;81;22140;-81
2022/04/11 15:31:05;;;;;;;3.00;1.52;;;;;;;13.32;43.31;100452.75;2842595;81;21013;-80
2022/04/11 15:35:08;;;;;;;4.35;0.90;;;;;;;13.24;44.04;100449.44;2857442;82;21029;-81
2022/04/11 15:39:09;;;;;;;6.22;2.02;;;;;;;13.47;44.15;100460.39;2835669;82;21083;-80
2022/04/11 15:43:10;;;;;;;7.22;1.65;;;;;;;13.40;43.18;100462.74;2861295;82;21001;-80
2022/04/11 15:47:11;;;;;;;10.15;5.30;;;;;;;13.32;41.51;100446.08;2859131;81;21099;-81
2022/04/11 15:51:12;;;;;;;6.78;4.33;;;;;;;13.13;42.01;100454.42;2845892;82;21091;-81
2022/04/11 15:55:13;;;;;;;3.15;1.20;;;;;;;13.14;43.30;100454.77;2845156;82;21629;-81
2022/04/11 15:59:15;;;;;;;7.30;2.40;;;;;;;13.12;44.03;100447.87;2853571;81;20985;-81
2022/04/11 16:03:16;;;;;;;1.35;1.00;;;;;;;13.09;45.02;100448.15;2803828;84;21039;-81
2022/04/11 16:07:17;;;;;;;4.30;1.82;;;;;;;13.04;44.02;100444.55;2774456;83;20992;-81
2022/04/11 16:11:18;;;;;;;4.87;3.05;;;;;;;13.05;44.51;100447.58;2778301;83;21098;-80
2022/04/11 16:15:26;;;;;;;31.30;4.33;;;;;;;12.97;46.16;100448.29;2749026;85;21074;-80
2022/04/11 16:19:22;;;;;;;11.40;5.30;;;;;;;12.86;44.73;100446.55;2792067;83;21035;-81
2022/04/11 16:23:23;;;;;;;4.90;1.65;;;;;;;12.59;44.88;100440.53;2747366;84;21064;-81
2022/04/11 16:27:25;;;;;;;5.42;2.72;;;;;;;12.50;44.54;100442.66;2747297;84;21008;-81
2022/04/11 16:31:26;;;;;;;4.87;1.52;;;;;;;12.48;46.04;100443.28;2797749;84;21071;-81
2022/04/11 16:35:29;;;;;;;1.57;1.47;;;;;;;12.36;44.82;100452.70;2747327;85;21083;-81
2022/04/11 16:39:30;;;;;;;3.37;1.47;;;;;;;12.35;46.08;100448.34;2802850;83;21102;-81
2022/04/11 16:43:32;;;;;;;3.05;1.50;;;;;;;12.39;47.90;100452.46;2865952;81;21083;-81
2022/04/11 16:47:33;;;;;;;4.75;1.72;;;;;;;12.31;47.26;100445.59;2850705;82;20977;-80
2022/04/11 16:51:34;;;;;;;19.23;10.50;;;;;;;12.24;47.57;100449.27;2835515;83;21060;-81
2022/04/11 16:55:35;;;;;;;25.15;17.10;;;;;;;12.10;43.94;100446.47;2851455;82;21027;-81
2022/04/11 16:59:36;;;;;;;34.53;20.05;;;;;;;12.02;44.63;100444.97;2835302;81;21028;-81
2022/04/11 17:03:38;;;;;;;20.02;12.95;;;;;;;11.92;45.35;100441.34;2838076;83;20984;-81
2022/04/11 17:07:40;;;;;;;19.05;12.28;;;;;;;11.81;46.76;100445.79;2794688;83;21345;-81
2022/04/11 17:11:41;;;;;;;23.87;16.05;;;;;;;11.66;48.69;100445.75;2834098;81;21026;-80
2022/04/11 17:20:03;;;;;;;8.58;4.78;;;;;;;11.13;48.04;100448.26;2826742;81;21122;-80
2022/04/11 17:24:07;;;;;;;3.90;3.42;;;;;;;10.98;50.98;100449.00;2833957;82;21004;-81
2022/04/11 17:28:08;;;;;;;4.30;1.77;;;;;;;10.67;51.49;100455.48;2828247;82;21044;-81
2022/04/11 17:32:09;;;;;;;3.15;1.80;;;;;;;10.50;51.70;100453.30;2834132;81;21826;-81
2022/04/11 17:36:11;;;;;;;3.02;2.10;;;;;;;10.31;51.59;100461.36;2833145;83;21068;-81
2022/04/11 17:40:12;;;;;;;3.87;1.37;;;;;;;10.14;51.81;100463.52;2836515;81;21071;-81
2022/04/11 17:44:13;;;;;;;2.75;1.72;;;;;;;10.00;53.00;100465.05;2837665;83;21517;-80
2022/04/11 17:48:15;;;;;;;3.47;3.02;;;;;;;9.78;54.00;100467.20;2841807;81;21032;-79
2022/04/11 17:52:16;;;;;;;3.87;3.05;;;;;;;9.50;54.65;100466.59;2849672;81;21059;-79
2022/04/11 17:56:17;;;;;;;6.20;2.55;;;;;;;9.32;54.58;100466.16;2855644;81;21020;-80
2022/04/11 18:00:18;;;;;;;10.48;6.03;;;;;;;9.22;54.70;100462.02;2841323;81;21062;-80
2022/04/11 18:04:20;;;;;;;6.67;6.00;;;;;;;9.11;55.43;100478.73;2861622;82;21708;-79
2022/04/11 18:08:21;;;;;;;5.40;3.35;;;;;;;8.94;56.02;100488.75;2837041;82;21035;-80
2022/04/11 18:12:22;;;;;;;8.13;4.05;;;;;;;8.73;57.08;100490.28;2842864;82;21047;-79
2022/04/11 18:16:25;;;;;;;16.90;9.95;;;;;;;8.62;57.33;100497.17;2848236;81;20965;-79
2022/04/11 18:20:26;;;;;;;16.75;9.65;;;;;;;8.49;56.87;100498.98;2860899;83;21039;-79
2022/04/11 18:24:27;;;;;;;18.92;9.38;;;;;;;8.42;57.05;100507.34;2854833;83;21019;-80
2022/04/11 18:32:48;;;;;;;21.35;11.48;;;;;;;8.21;57.18;100507.04;2847200;83;21060;-79
2022/04/11 18:36:49;;;;;;;20.02;12.75;;;;;;;8.13;56.93;100508.89;2855532;83;21048;-80
2022/04/11 18:40:50;;;;;;;67.42;36.90;;;;;;;8.06;57.08;100512.05;2864205;81;21016;-79
2022/04/11 18:44:56;;;;;;;82.80;47.43;;;;;;;8.02;56.96;100512.72;2861676;81;21613;-79
2022/04/11 18:48:56;;;;;;;62.00;36.15;;;;;;;8.00;57.33;100517.28;2862896;83;21028;-79
2022/04/11 18:52:57;;;;;;;65.90;40.70;;;;;;;7.95;57.74;100523.38;2864760;83;21000;-80
2022/04/11 18:56:58;;;;;;;66.15;40.05;;;;;;;7.83;57.61;100529.02;2856381;81;21040;-79
2022/04/11 19:00:59;;;;;;;36.60;25.95;;;;;;;7.72;58.05;100532.37;2810182;83;21489;-79
2022/04/11 19:05:01;;;;;;;54.33;32.40;;;;;;;7.61;57.75;100531.77;2810891;83;21119;-79